Latest Weather Observations for Jandakot

IDW60801

Issued at 9:43 am WST Tuesday 22 September 2020 (issued every 10 minutes, with the page automatically refreshed every 10 minutes)

About weather observations | Map of weather stations | Latest weather observations for WA | Other Formats
Station Details ID: 009172 Name: JANDAKOT AERO Lat: -32.10 Lon: 115.88 Height: 30.0 m
Data from the previous 72 hours. | See also: Recent months at Jandakot
Date/Time
WST
Temp
°C
App
Temp
°C
Dew
Point
°C
Rel
Hum
%
Delta-T
°C
Wind Press
QNH
hPa
Press
MSL
hPa
Rain since
9am
mm
Dir  Spd
km/h
Gust
km/h
Spd
kts
Gust
kts
22/09:30am 15.2 15.4 14.6 96 0.3 ENE 7 9 4 5 1024.2 1024.2 0.0
22/09:14am 14.8 15.0 14.8 100 0.0 ENE 7 9 4 5 1024.1 1024.1 0.0
22/09:04am 14.2 14.2 14.2 100 0.0 ENE 7 9 4 5 1024.1 1024.1 0.0
22/09:00am 14.1 14.1 14.1 100 0.0 E 7 9 4 5 1024.1 1024.1 1.2
22/08:55am 13.9 13.4 13.9 100 0.0 SE 9 11 5 6 1024.1 1024.1 1.2
22/08:53am 13.9 13.4 13.9 100 0.0 SE 9 11 5 6 1024.1 1024.1 1.2
22/08:30am 13.7 13.5 13.7 100 0.0 E 7 11 4 6 1024.0 1024.0 1.2
22/08:07am 12.9 11.3 12.9 100 0.0 NE 13 15 7 8 1023.9 1023.9 1.2
22/08:03am 12.8 11.2 12.8 100 0.0 NNE 13 15 7 8 1023.8 1023.8 1.2
22/08:00am 12.5 10.8 12.5 100 0.0 NNE 13 15 7 8 1023.8 1023.8 1.2
22/07:52am 12.6 11.3 12.6 100 0.0 NNE 11 13 6 7 1023.7 1023.7 1.2
22/07:43am 12.4 11.1 12.4 100 0.0 N 11 13 6 7 1023.7 1023.7 1.0
22/07:30am 12.4 11.4 12.4 100 0.0 NNE 9 13 5 7 1023.6 1023.6 0.6
22/07:00am 11.5 10.3 11.5 100 0.0 NNE 9 13 5 7 1023.2 1023.2 0.6
22/06:57am 11.4 9.8 11.4 100 0.0 NNE 11 15 6 8 1023.1 1023.1 0.6
22/06:42am 11.2 9.1 11.2 100 0.0 NNE 13 15 7 8 1022.9 1022.9 0.6
22/06:30am 11.1 9.0 11.1 100 0.0 NNE 13 17 7 9 1022.8 1022.8 0.6
22/06:00am 10.4 10.6 10.4 100 0.0 CALM 0 0 0 0 1022.7 1022.7 0.6
22/05:30am 10.1 10.2 10.1 100 0.0 CALM 0 0 0 0 1022.4 1022.4 0.6
22/05:00am 10.4 10.6 10.4 100 0.0 CALM 0 0 0 0 1022.1 1022.1 0.6
22/04:30am 10.4 9.2 10.4 100 0.0 ENE 7 13 4 7 1021.8 1021.8 0.6
22/04:00am 10.6 9.1 10.6 100 0.0 NE 9 9 5 5 1021.7 1021.7 0.6
22/03:30am 10.2 9.9 10.2 100 0.0 NE 2 6 1 3 1021.7 1021.7 0.4
22/03:00am 9.8 9.0 9.8 100 0.0 NE 4 11 2 6 1021.8 1021.8 0.4
22/02:51am 9.7 9.7 9.7 100 0.0 CALM 0 0 0 0 1021.8 1021.8 0.4
22/02:30am 9.6 9.5 9.6 100 0.0 CALM 0 0 0 0 1021.8 1021.8 0.4
22/02:00am 9.7 8.5 9.7 100 0.0 NE 6 7 3 4 1021.9 1021.9 0.4
22/01:30am 10.0 8.3 10.0 100 0.0 ENE 9 9 5 5 1022.1 1022.1 0.4
22/01:25am 10.0 8.7 10.0 100 0.0 ENE 7 9 4 5 1022.0 1022.0 0.4
22/01:00am 10.7 10.6 10.7 100 0.0 NNE 2 11 1 6 1022.1 1022.1 0.4
22/12:30am 10.6 10.8 10.6 100 0.0 CALM 0 0 0 0 1022.2 1022.2 0.4
22/12:00am 11.3 11.0 11.3 100 0.0 N 4 9 2 5 1022.2 1022.2 0.4
 
Date/Time
WST
Temp
°C
App
Temp
°C
Dew
Point
°C
Rel
Hum
%
Delta-T
°C
Wind Press
QNH
hPa
Press
MSL
hPa
Rain since
9am
mm
Dir  Spd
km/h
Gust
km/h
Spd
kts
Gust
kts
21/11:30pm 11.7 12.2 11.7 100 0.0 CALM 0 0 0 0 1022.3 1022.3 0.4
21/11:00pm 11.6 12.1 11.6 100 0.0 CALM 0 0 0 0 1022.4 1022.4 0.4
21/10:30pm 12.0 12.6 12.0 100 0.0 CALM 0 0 0 0 1022.7 1022.7 0.4
21/10:00pm 12.4 11.8 12.4 100 0.0 NNE 7 9 4 5 1022.9 1022.9 0.4
21/09:30pm 12.3 11.7 12.3 100 0.0 NNE 7 9 4 5 1023.0 1023.0 0.4
21/09:00pm 12.5 11.5 12.3 99 0.1 NNE 9 13 5 7 1023.1 1023.1 0.4
21/08:30pm 12.8 13.5 12.3 97 0.3 CALM 0 7 0 4 1023.4 1023.4 0.4
21/08:00pm 13.2 13.9 12.1 93 0.6 CALM 0 0 0 0 1023.2 1023.2 0.2
21/07:30pm 13.4 14.1 12.1 92 0.7 CALM 0 13 0 7 1023.0 1023.0 0.2
21/07:00pm 13.2 12.1 12.1 93 0.6 WSW 9 13 5 7 1022.7 1022.7 0.0
21/06:30pm 13.3 13.7 11.4 88 1.0 CALM 0 0 0 0 1022.6 1022.6 0.0
21/06:00pm 13.3 12.7 11.7 90 0.9 W 6 7 3 4 1022.6 1022.6 0.0
21/05:30pm 14.4 10.1 10.8 79 1.9 WSW 24 33 13 18 1022.7 1022.7 0.0
21/05:00pm 15.3 12.8 9.7 69 2.9 SW 13 17 7 9 1022.3 1022.3 0.0
21/04:30pm 15.0 12.5 9.6 70 2.8 WSW 13 22 7 12 1022.2 1022.2 0.0
21/04:00pm 15.1 9.5 10.3 73 2.5 SW 30 35 16 19 1022.2 1022.2 0.0
21/03:30pm 16.4 11.4 8.1 58 4.2 WSW 24 30 13 16 1021.8 1021.8 0.0
21/03:00pm 16.8 12.5 7.7 55 4.6 SW 20 28 11 15 1021.8 1021.8 0.0
21/02:30pm 17.3 12.1 7.1 51 5.1 SW 24 32 13 17 1021.7 1021.7 0.0
21/02:00pm 17.4 13.5 7.2 51 5.1 SW 17 28 9 15 1021.6 1021.6 0.0
21/01:30pm 16.8 12.4 7.4 54 4.7 SSW 20 30 11 16 1022.0 1022.0 0.0
21/01:00pm 17.0 11.7 6.8 51 5.0 WSW 24 35 13 19 1022.2 1022.2 0.0
21/12:30pm 17.2 12.6 6.7 50 5.2 SW 20 33 11 18 1022.0 1022.0 0.0
21/12:00pm 16.8 11.8 6.3 50 5.1 SW 22 32 12 17 1022.3 1022.3 0.0
21/11:30am 16.4 12.2 7.6 56 4.4 SSW 19 30 10 16 1022.4 1022.4 0.0
21/11:00am 15.5 12.0 7.0 57 4.2 SSW 15 24 8 13 1022.5 1022.5 0.0
21/10:30am 15.3 11.3 6.8 57 4.2 S 17 20 9 11 1022.4 1022.4 0.0
21/10:00am 15.4 11.7 6.4 55 4.4 SSW 15 22 8 12 1022.5 1022.5 0.0
21/09:30am 15.2 11.7 7.0 58 4.0 S 15 26 8 14 1022.5 1022.5 0.0
21/09:00am 14.1 11.0 7.2 63 3.4 SSW 13 19 7 10 1022.5 1022.5 2.4
21/08:30am 13.4 9.7 8.0 70 2.7 SSE 17 20 9 11 1022.3 1022.3 2.4
21/08:00am 12.7 9.9 8.6 76 2.0 SSE 13 19 7 10 1022.3 1022.3 2.4
21/07:30am 11.8 10.0 8.1 78 1.8 SSE 7 9 4 5 1021.9 1021.9 2.4
21/07:00am 11.2 8.7 8.2 82 1.5 SSE 11 13 6 7 1021.8 1021.8 2.4
21/06:30am 10.8 9.1 8.4 85 1.2 SE 7 9 4 5 1021.5 1021.5 2.4
21/06:00am 10.9 8.7 7.8 81 1.5 SSE 9 11 5 6 1021.2 1021.2 2.4
21/05:30am 10.9 9.1 8.1 83 1.4 SSE 7 9 4 5 1020.8 1020.8 2.4
21/05:00am 11.3 8.3 7.6 78 1.8 SSE 13 20 7 11 1020.7 1020.7 2.4
21/04:30am 11.2 9.5 8.2 82 1.5 SSE 7 9 4 5 1020.6 1020.6 2.4
21/04:00am 10.7 9.2 8.5 86 1.1 SSW 6 11 3 6 1020.4 1020.4 2.4
21/03:30am 10.4 10.2 9.2 92 0.6 CALM 0 0 0 0 1020.2 1020.2 2.4
21/03:00am 10.5 10.3 9.1 91 0.7 CALM 0 0 0 0 1020.3 1020.3 2.4
21/02:30am 10.8 8.9 9.1 89 0.8 SE 9 11 5 6 1020.5 1020.5 2.4
21/02:00am 10.9 8.5 8.8 87 1.0 SE 11 15 6 8 1020.6 1020.6 2.4
21/01:30am 11.8 9.0 8.6 81 1.6 SSE 13 26 7 14 1020.5 1020.5 2.4
21/01:00am 13.1 8.1 4.5 56 3.9 SW 20 28 11 15 1020.4 1020.4 2.4
21/12:30am 13.1 8.2 5.3 59 3.6 SSW 20 30 11 16 1020.5 1020.5 2.4
21/12:00am 13.0 7.6 4.7 57 3.8 SW 22 33 12 18 1020.6 1020.6 2.4
 
Date/Time
WST
Temp
°C
App
Temp
°C
Dew
Point
°C
Rel
Hum
%
Delta-T
°C
Wind Press
QNH
hPa
Press
MSL
hPa
Rain since
9am
mm
Dir  Spd
km/h
Gust
km/h
Spd
kts
Gust
kts
20/11:30pm 12.7 7.9 5.8 63 3.2 SW 20 26 11 14 1020.4 1020.4 2.4
20/11:00pm 12.5 7.6 5.2 61 3.4 SW 20 30 11 16 1020.5 1020.5 2.4
20/10:30pm 12.6 6.9 5.1 60 3.5 SW 24 35 13 19 1020.5 1020.5 2.4
20/10:00pm 12.1 7.4 5.0 62 3.3 SW 19 24 10 13 1020.5 1020.5 2.4
20/09:30pm 12.2 7.4 5.4 63 3.2 SW 20 28 11 15 1020.5 1020.5 2.4
20/09:00pm 12.2 8.1 6.3 67 2.8 SSW 17 24 9 13 1020.5 1020.5 2.4
20/08:30pm 12.3 7.8 6.1 66 2.9 SSW 19 30 10 16 1020.3 1020.3 2.4
20/08:00pm 12.4 7.8 6.7 68 2.7 SSW 20 28 11 15 1020.2 1020.2 2.4
20/07:30pm 12.1 7.9 8.2 77 1.9 SSW 20 28 11 15 1019.9 1019.9 2.4
20/07:00pm 12.4 7.1 8.5 77 1.9 SSW 26 35 14 19 1019.6 1019.6 2.4
20/06:30pm 13.3 8.3 8.2 71 2.5 SSW 24 39 13 21 1019.0 1019.0 2.4
20/06:00pm 13.2 8.0 8.7 74 2.3 SW 26 37 14 20 1018.8 1018.8 2.4
20/05:36pm 12.9 6.7 9.4 79 1.8 SW 32 50 17 27 1018.3 1018.3 2.4
20/05:30pm 13.4 7.0 8.7 73 2.4 SW 32 46 17 25 1018.5 1018.5 2.2
20/05:00pm 14.6 7.7 7.4 62 3.5 SW 33 48 18 26 1017.8 1017.8 2.2
20/04:30pm 14.1 7.1 8.5 69 2.8 SW 35 50 19 27 1017.7 1017.7 2.2
20/04:00pm 13.8 8.6 11.7 87 1.1 SW 30 50 16 27 1017.4 1017.4 2.2
20/03:31pm 14.1 7.1 8.3 68 2.9 SW 35 57 19 31 1017.5 1017.5 2.0
20/03:30pm 14.3 7.4 8.9 70 2.7 SW 35 50 19 27 1017.3 1017.3 2.0
20/03:00pm 13.3 5.1 9.7 79 1.8 SW 43 65 23 35 1017.1 1017.1 2.0
20/02:42pm 15.7 9.1 10.0 69 3.0 SW 35 54 19 29 1016.9 1016.9 2.0
20/02:30pm 15.0 7.1 9.4 69 2.9 SW 41 57 22 31 1016.9 1016.9 2.0
20/02:14pm 15.0 8.6 8.7 66 3.2 WSW 32 52 17 28 1016.8 1016.8 2.0
20/02:00pm 14.5 7.7 9.1 70 2.8 SW 35 48 19 26 1016.8 1016.8 2.0
20/01:50pm 14.5 8.4 9.7 73 2.5 SW 32 52 17 28 1016.6 1016.6 2.0
20/01:44pm 13.8 7.7 9.8 77 2.1 SW 32 43 17 23 1016.6 1016.6 2.0
20/01:30pm 12.5 4.0 10.6 88 1.0 SW 46 76 25 41 1017.0 1017.0 1.8
20/01:24pm 14.2 6.2 9.0 71 2.6 SW 41 76 22 41 1016.6 1016.6 1.6
20/01:00pm 15.1 8.4 9.7 70 2.8 WSW 35 52 19 28 1016.6 1016.6 1.6
20/12:39pm 13.5 6.8 9.7 78 2.0 WSW 35 57 19 31 1016.7 1016.7 1.6
20/12:30pm 14.7 8.0 9.5 71 2.7 WSW 35 46 19 25 1016.6 1016.6 1.4
20/12:12pm 13.4 6.7 11.1 86 1.2 WSW 37 56 20 30 1017.0 1017.0 1.4
20/12:00pm 15.1 7.2 7.9 62 3.6 SW 39 56 21 30 1016.5 1016.5 1.2
20/11:54am 15.4 8.9 9.1 66 3.2 WSW 33 52 18 28 1016.4 1016.4 1.2
20/11:30am 13.8 6.3 9.5 75 2.2 WSW 39 52 21 28 1016.8 1016.8 1.0
20/11:00am 15.1 7.8 8.6 65 3.3 WSW 37 57 20 31 1016.3 1016.3 1.0
20/10:34am 13.8 8.0 9.6 76 2.2 WSW 30 48 16 26 1016.3 1016.3 1.0
20/10:30am 14.6 9.3 9.8 73 2.5 WSW 28 37 15 20 1016.2 1016.2 1.0
20/10:14am 12.7 7.4 9.7 82 1.5 WSW 28 39 15 21 1016.3 1016.3 0.8
20/10:00am 11.8 3.8 9.0 83 1.4 WSW 41 61 22 33 1016.5 1016.5 0.8
20/09:57am 11.7 4.1 8.9 83 1.4 WSW 39 59 21 32 1016.5 1016.5 0.8
20/09:51am 14.4 7.5 7.2 62 3.5 WSW 33 57 18 31 1016.2 1016.2 0.0
20/09:30am 14.0 7.3 7.5 65 3.2 WSW 32 43 17 23 1015.8 1015.8 0.0
20/09:00am 13.5 6.7 7.9 69 2.8 WSW 33 54 18 29 1015.4 1015.4 8.6
20/08:45am 11.8 5.5 8.8 82 1.5 WSW 32 54 17 29 1015.6 1015.6 8.6
20/08:43am 11.9 6.3 8.7 81 1.6 WSW 28 48 15 26 1015.5 1015.5 8.4
20/08:30am 11.9 7.1 8.7 81 1.6 WSW 24 41 13 22 1015.4 1015.4 7.8
20/08:08am 12.7 5.2 6.5 66 3.0 WSW 35 54 19 29 1015.1 1015.1 7.6
20/08:00am 13.7 7.4 7.5 66 3.0 WSW 30 44 16 24 1014.6 1014.6 7.4
20/07:30am 13.0 7.6 8.1 72 2.4 WSW 26 33 14 18 1014.4 1014.4 7.4
20/07:10am 12.6 5.9 7.5 71 2.5 WSW 32 52 17 28 1014.0 1014.0 7.4
20/07:00am 12.0 5.1 7.1 72 2.4 SW 33 44 18 24 1014.0 1014.0 7.4
20/06:35am 11.3 5.0 7.2 76 2.0 WSW 30 54 16 29 1013.5 1013.5 7.4
20/06:30am 11.4 5.8 7.1 75 2.1 WSW 26 43 14 23 1013.6 1013.6 7.4
20/06:09am 11.2 5.2 6.9 75 2.0 WSW 28 50 15 27 1013.6 1013.6 7.4
20/06:00am 10.7 5.0 6.6 76 1.9 WSW 26 39 14 21 1013.3 1013.3 7.4
20/05:43am 11.1 5.2 7.4 78 1.8 WSW 28 46 15 25 1013.1 1013.1 7.4
20/05:30am 10.3 6.3 8.1 86 1.1 WSW 19 26 10 14 1013.2 1013.2 7.4
20/05:25am 10.0 5.8 8.3 89 0.8 WSW 20 28 11 15 1013.2 1013.2 7.4
20/05:08am 9.9 2.7 7.5 85 1.1 WSW 35 56 19 30 1013.4 1013.4 7.4
20/05:05am 10.6 4.4 7.7 82 1.4 WSW 30 52 16 28 1013.4 1013.4 6.8
20/05:00am 10.9 4.5 7.0 77 1.9 WSW 30 44 16 24 1013.0 1013.0 6.2
20/04:50am 11.3 4.9 7.0 75 2.1 WSW 30 48 16 26 1012.9 1012.9 6.2
20/04:30am 10.3 4.7 7.2 81 1.5 WSW 26 35 14 19 1012.9 1012.9 6.2
20/04:00am 11.5 4.3 5.2 65 2.9 WSW 32 50 17 27 1012.6 1012.6 5.8
20/03:32am 10.6 3.8 6.7 77 1.8 WSW 32 50 17 27 1012.7 1012.7 5.8
20/03:30am 10.6 3.6 6.9 78 1.8 WSW 33 50 18 27 1012.6 1012.6 5.8
20/03:19am 10.7 4.8 7.4 80 1.6 SW 28 52 15 28 1012.8 1012.8 5.6
20/03:00am 10.3 4.2 6.6 78 1.7 WSW 28 43 15 23 1012.6 1012.6 5.0
20/02:30am 11.5 3.6 6.2 70 2.5 SW 37 57 20 31 1012.8 1012.8 4.6
20/02:25am 12.0 5.7 5.9 66 2.9 WSW 28 46 15 25 1012.4 1012.4 4.6
20/02:00am 11.7 3.0 4.2 60 3.4 WSW 39 52 21 28 1012.8 1012.8 4.6
20/01:34am 11.9 2.8 3.9 58 3.6 WSW 41 59 22 32 1012.9 1012.9 4.6
20/01:30am 12.1 2.6 3.9 57 3.7 WSW 43 59 23 32 1012.7 1012.7 4.6
20/01:05am 12.2 4.3 4.4 59 3.5 WSW 35 56 19 30 1012.7 1012.7 4.6
20/01:00am 11.8 3.1 4.3 60 3.4 WSW 39 50 21 27 1012.9 1012.9 4.6
20/12:33am 12.2 2.6 4.2 58 3.6 WSW 44 65 24 35 1012.8 1012.8 4.6
20/12:30am 12.2 3.2 4.4 59 3.5 WSW 41 57 22 31 1013.0 1013.0 4.6
20/12:00am 11.4 3.6 5.1 65 2.9 WSW 35 56 19 30 1013.1 1013.1 4.6
 
Date/Time
WST
Temp
°C
App
Temp
°C
Dew
Point
°C
Rel
Hum
%
Delta-T
°C
Wind Press
QNH
hPa
Press
MSL
hPa
Rain since
9am
mm
Dir  Spd
km/h
Gust
km/h
Spd
kts
Gust
kts
19/11:30pm 9.6 1.7 4.6 71 2.2 SW 35 61 19 33 1013.3 1013.3 4.6
19/11:24pm 10.3 4.6 5.1 70 2.4 SSW 24 61 13 33 1013.3 1013.3 4.6
19/11:00pm 10.7 4.2 4.6 66 2.7 WSW 28 41 15 22 1013.2 1013.2 4.4
19/10:31pm 11.4 4.1 4.6 63 3.1 WSW 32 50 17 27 1013.2 1013.2 4.0
19/10:30pm 11.5 4.1 4.9 64 3.0 WSW 33 50 18 27 1013.2 1013.2 4.0
19/10:26pm 11.6 4.3 4.3 61 3.3 WSW 32 50 17 27 1013.2 1013.2 4.0
19/10:00pm 10.3 5.2 6.1 75 1.9 WSW 22 32 12 17 1013.4 1013.4 4.0
19/09:36pm 9.9 1.3 4.5 69 2.4 WSW 39 69 21 37 1013.9 1013.9 3.8
19/09:32pm 11.1 3.9 4.8 65 2.9 WSW 32 50 17 27 1013.7 1013.7 3.6
19/09:30pm 10.9 3.6 4.4 64 2.9 WSW 32 43 17 23 1013.6 1013.6 3.6
19/09:06pm 10.0 1.6 5.8 75 1.9 SW 39 57 21 31 1013.3 1013.3 3.6
19/09:00pm 10.0 0.4 6.3 78 1.7 SW 46 59 25 32 1013.3 1013.3 3.6
19/08:44pm 11.4 5.2 6.1 70 2.5 WSW 28 50 15 27 1012.9 1012.9 3.6
19/08:30pm 9.4 5.6 7.7 89 0.8 W 17 26 9 14 1013.2 1013.2 3.6
19/08:26pm 9.3 4.5 7.4 88 0.9 W 22 32 12 17 1013.2 1013.2 3.6
19/08:17pm 9.3 2.4 7.1 86 1.0 W 33 44 18 24 1013.3 1013.3 3.4
19/08:13pm 9.5 1.4 7.1 85 1.1 WSW 39 61 21 33 1013.3 1013.3 3.4
19/08:06pm 11.3 3.1 6.4 72 2.3 WSW 39 57 21 31 1012.9 1012.9 2.6
19/08:00pm 12.2 3.6 4.7 60 3.4 WSW 39 56 21 30 1012.5 1012.5 2.6
19/07:30pm 11.9 3.1 5.5 65 3.0 W 41 67 22 36 1012.1 1012.1 2.6
19/07:01pm 11.2 5.3 7.3 77 1.9 W 28 50 15 27 1011.9 1011.9 2.6
19/07:00pm 11.0 5.5 7.5 79 1.7 W 26 43 14 23 1011.9 1011.9 2.6
19/06:54pm 10.7 5.6 7.8 82 1.4 WNW 24 35 13 19 1011.5 1011.5 2.6
19/06:36pm 10.5 1.3 7.9 84 1.3 W 46 80 25 43 1011.8 1011.8 2.4
19/06:30pm 10.8 1.8 6.2 73 2.1 W 43 80 23 43 1011.6 1011.6 2.0
19/06:02pm 11.9 2.9 7.2 73 2.3 W 44 63 24 34 1011.1 1011.1 1.8
19/06:00pm 12.0 2.6 7.1 72 2.4 W 46 63 25 34 1011.0 1011.0 1.8
19/05:30pm 13.2 4.2 6.5 64 3.2 WSW 43 72 23 39 1010.9 1010.9 1.8
19/05:00pm 14.0 4.6 5.6 57 4.0 W 44 65 24 35 1010.6 1010.6 1.8
19/04:30pm 15.2 5.6 4.3 48 5.1 W 44 65 24 35 1010.3 1010.3 1.8
19/04:00pm 15.3 8.0 7.3 59 4.0 W 35 63 19 34 1009.7 1009.7 1.8
19/03:30pm 14.4 3.9 5.7 56 4.1 W 50 76 27 41 1009.9 1009.9 1.8
19/03:22pm 15.1 6.1 6.4 56 4.2 W 43 65 23 35 1009.6 1009.6 1.8
19/03:00pm 16.2 7.1 6.9 54 4.6 W 44 59 24 32 1009.5 1009.5 1.8
19/02:30pm 16.0 7.0 9.0 63 3.6 W 46 65 25 35 1009.3 1009.3 1.8
19/02:01pm 13.7 6.2 10.7 82 1.6 W 41 59 22 32 1009.5 1009.5 1.6
19/02:00pm 13.5 5.4 10.1 80 1.8 W 43 59 23 32 1009.5 1009.5 1.6
19/01:45pm 13.6 6.3 10.2 80 1.8 WSW 39 57 21 31 1009.3 1009.3 1.4
19/01:44pm 13.5 6.1 9.9 79 1.9 WSW 39 57 21 31 1009.3 1009.3 1.4
19/01:30pm 15.9 7.6 7.7 58 4.1 W 41 57 22 31 1009.0 1009.0 0.6
19/01:16pm 16.6 9.7 10.2 66 3.4 W 37 56 20 30 1009.0 1009.0 0.6
19/01:09pm 15.9 9.9 10.0 68 3.1 W 32 48 17 26 1009.1 1009.1 0.6
19/01:00pm 14.8 8.5 11.2 79 1.9 W 35 57 19 31 1009.3 1009.3 0.6
19/12:58pm 14.5 7.5 11.3 81 1.7 W 39 57 21 31 1009.4 1009.4 0.6
19/12:57pm 14.3 6.9 11.1 81 1.7 W 41 57 22 31 1009.4 1009.4 0.6
19/12:30pm 16.6 8.6 9.1 61 3.9 WSW 41 59 22 32 1009.5 1009.5 0.0
19/12:02pm 18.0 11.2 7.7 51 5.2 W 33 52 18 28 1009.2 1009.2 0.0
19/12:00pm 17.7 10.8 7.2 50 5.3 W 33 50 18 27 1009.4 1009.4 0.0
19/11:33am 15.9 10.0 7.7 58 4.1 W 28 46 15 25 1009.6 1009.6 0.0
19/11:30am 15.5 8.9 7.8 60 3.9 W 32 46 17 25 1009.7 1009.7 0.0
19/11:00am 15.8 9.6 9.2 65 3.4 W 32 43 17 23 1009.8 1009.8 0.0
19/10:30am 16.3 9.6 7.5 56 4.4 WSW 32 43 17 23 1009.8 1009.8 0.0
19/10:04am 16.8 11.3 9.2 61 3.9 WSW 28 46 15 25 1009.5 1009.5 0.0
19/10:00am 16.0 11.3 9.2 64 3.5 WSW 24 32 13 17 1009.5 1009.5 0.0

Other formats

Comma delimited format used in spreadsheet applications
http://www.bom.gov.au/fwo/IDW60801/IDW60801.94609.axf

JavaScript Object Notation format (JSON) in row-major order
http://www.bom.gov.au/fwo/IDW60801/IDW60801.94609.json

Data quality

Most of these data are generated automatically and are frequently updated. Quality checks on data are not normally performed. It is possible for incorrect values to appear. Refer to information at About Latest Weather Observations and please check the disclaimer before using these data.